createdAt,value
2022-12-01T00:03:07.592Z,1.63
2022-12-01T00:13:35.575Z,1.80
2022-12-01T00:24:02.967Z,2.06
2022-12-01T00:34:30.564Z,2.23
2022-12-01T00:44:57.911Z,2.37
2022-12-01T00:55:25.248Z,2.28
2022-12-01T01:05:52.643Z,2.23
2022-12-01T01:16:22.097Z,2.30
2022-12-01T01:26:49.548Z,2.39
2022-12-01T01:37:16.771Z,2.54
2022-12-01T01:47:44.244Z,2.42
2022-12-01T01:58:12.868Z,2.16
2022-12-01T02:08:39.051Z,2.11
2022-12-01T02:19:26.894Z,1.93
2022-12-01T02:30:12.578Z,1.84
2022-12-01T02:40:45.278Z,1.82
2022-12-01T02:51:16.039Z,1.90
2022-12-01T03:01:55.885Z,1.84
2022-12-01T03:12:30.094Z,1.71
2022-12-01T03:23:03.797Z,1.65
2022-12-01T03:33:35.095Z,1.71
2022-12-01T03:44:08.672Z,1.68
2022-12-01T03:54:50.333Z,1.71
2022-12-01T04:05:22.465Z,1.69
2022-12-01T04:15:53.564Z,1.80
2022-12-01T04:26:20.994Z,1.85
2022-12-01T04:36:48.294Z,1.80
2022-12-01T04:47:15.753Z,1.85
2022-12-01T04:57:43.123Z,1.93
2022-12-01T05:08:11.108Z,1.94
2022-12-01T05:18:39.388Z,1.98
2022-12-01T05:29:07.646Z,1.94
2022-12-01T05:39:35.679Z,1.85
2022-12-01T05:50:05.706Z,1.82
2022-12-01T06:00:34.425Z,1.81
2022-12-01T06:11:01.783Z,1.84
2022-12-01T06:21:29.263Z,1.86
2022-12-01T06:31:56.775Z,1.97
2022-12-01T06:42:24.093Z,2.00
2022-12-01T06:52:52.904Z,2.14
2022-12-01T07:03:21.029Z,2.19
2022-12-01T07:13:51.052Z,2.09
2022-12-01T07:24:18.749Z,2.10
2022-12-01T07:34:46.673Z,2.11
2022-12-01T07:45:14.143Z,2.10
2022-12-01T07:55:41.379Z,2.25
2022-12-01T08:06:10.624Z,2.19
2022-12-01T08:16:38.529Z,2.10
2022-12-01T08:27:06.643Z,1.90
2022-12-01T08:37:34.515Z,1.85
2022-12-01T08:48:02.365Z,1.92
2022-12-01T08:58:31.014Z,1.90
2022-12-01T09:08:57.675Z,2.01
2022-12-01T09:19:25.477Z,2.05
2022-12-01T09:29:52.792Z,2.07
2022-12-01T09:40:20.591Z,2.14
2022-12-01T09:50:48.008Z,2.10
2022-12-01T10:01:23.045Z,2.05
2022-12-01T10:11:56.167Z,2.04
2022-12-01T10:23:00.760Z,2.13
2022-12-01T10:33:35.175Z,2.07
2022-12-01T10:44:05.707Z,2.06
2022-12-01T10:54:37.928Z,2.13
2022-12-01T11:05:08.195Z,2.17
2022-12-01T11:15:40.431Z,2.12
2022-12-01T11:26:15.943Z,2.14
2022-12-01T11:36:47.625Z,2.12
2022-12-01T11:47:24.600Z,2.13
2022-12-01T11:57:54.403Z,2.27
2022-12-01T12:08:35.957Z,2.36
2022-12-01T12:19:17.395Z,2.39
2022-12-01T12:29:59.704Z,2.36
2022-12-01T12:40:42.023Z,2.24
2022-12-01T12:51:17.368Z,2.16
2022-12-01T13:01:48.931Z,2.17
2022-12-01T13:12:31.686Z,2.13
2022-12-01T13:23:01.991Z,2.19
2022-12-01T13:33:29.921Z,2.22
2022-12-01T13:44:07.291Z,2.31
2022-12-01T13:54:38.667Z,2.29
2022-12-01T14:05:39.861Z,2.30
2022-12-01T14:16:07.876Z,2.17
2022-12-01T14:26:44.937Z,2.16
2022-12-01T14:37:15.727Z,2.18
2022-12-01T14:47:48.978Z,2.22
2022-12-01T14:58:20.980Z,2.18
2022-12-01T15:09:25.587Z,2.09
2022-12-01T15:19:51.363Z,2.05
2022-12-01T15:30:19.677Z,2.13
2022-12-01T15:41:21.059Z,2.18
2022-12-01T15:51:36.182Z,2.16
2022-12-01T16:02:15.047Z,2.07
2022-12-01T16:12:42.538Z,2.01
2022-12-01T16:23:16.798Z,2.05
2022-12-01T16:33:44.212Z,2.08
2022-12-01T16:44:28.045Z,2.18
2022-12-01T16:54:56.258Z,2.07
2022-12-01T17:05:24.223Z,2.05
2022-12-01T17:15:53.584Z,2.07
2022-12-01T17:26:22.183Z,2.10
2022-12-01T17:36:49.576Z,2.11
2022-12-01T17:47:17.165Z,2.00
2022-12-01T17:57:44.531Z,1.90
2022-12-01T18:08:12.053Z,1.92
2022-12-01T18:18:40.352Z,1.87
2022-12-01T18:29:12.246Z,1.96
2022-12-01T18:39:39.452Z,1.96
2022-12-01T18:50:08.606Z,1.91
2022-12-01T19:00:36.236Z,1.83
2022-12-01T19:11:05.396Z,1.82
2022-12-01T19:21:32.748Z,1.76
2022-12-01T19:32:00.003Z,1.89
2022-12-01T19:42:27.397Z,2.00
2022-12-01T19:52:54.704Z,1.91
2022-12-01T20:03:21.997Z,1.95
2022-12-01T20:13:49.836Z,2.06
2022-12-01T20:24:20.316Z,2.27
2022-12-01T20:34:47.818Z,2.22
2022-12-01T20:45:15.416Z,2.01
2022-12-01T20:55:43.334Z,2.20
2022-12-01T21:06:11.503Z,2.09
2022-12-01T21:16:40.671Z,2.12
2022-12-01T21:27:15.246Z,2.21
2022-12-01T21:37:42.595Z,2.20
2022-12-01T21:48:17.892Z,2.16
2022-12-01T21:58:46.457Z,1.99
2022-12-01T22:09:23.599Z,1.87
2022-12-01T22:19:56.909Z,1.68
2022-12-01T22:30:25.528Z,1.51
2022-12-01T22:40:59.659Z,1.53
2022-12-01T22:51:36.408Z,1.58
2022-12-01T23:02:15.386Z,1.59
2022-12-01T23:12:46.810Z,1.63
2022-12-01T23:23:14.879Z,1.76
2022-12-01T23:33:42.369Z,1.71
2022-12-01T23:44:19.111Z,1.63
2022-12-01T23:54:46.977Z,1.74
